createdAt,value
2018-12-19T00:01:57.175Z,22.43
2018-12-19T00:04:26.235Z,21.03
2018-12-19T00:06:55.422Z,21.73
2018-12-19T00:09:25.335Z,21.97
2018-12-19T00:11:55.372Z,21.47
2018-12-19T00:14:24.772Z,20.53
2018-12-19T00:16:53.951Z,23.07
2018-12-19T00:19:23.833Z,21.73
2018-12-19T00:21:52.946Z,20.60
2018-12-19T00:24:21.830Z,17.90
2018-12-19T00:26:50.990Z,19.80
2018-12-19T00:29:19.738Z,18.70
2018-12-19T00:31:50.090Z,20.57
2018-12-19T00:34:19.174Z,17.67
2018-12-19T00:36:47.936Z,18.45
2018-12-19T00:39:16.637Z,19.40
2018-12-19T00:41:45.389Z,20.30
2018-12-19T00:44:13.968Z,17.53
2018-12-19T00:46:43.515Z,18.10
2018-12-19T00:49:12.698Z,17.93
2018-12-19T00:51:41.539Z,17.57
2018-12-19T00:54:10.869Z,20.70
2018-12-19T00:56:40.006Z,16.17
2018-12-19T00:59:09.610Z,18.83
2018-12-19T01:01:38.210Z,17.07
2018-12-19T01:04:06.975Z,22.37
2018-12-19T01:06:35.833Z,16.37
2018-12-19T01:09:06.649Z,18.30
2018-12-19T01:11:36.008Z,20.43
2018-12-19T01:14:05.672Z,20.50
2018-12-19T01:16:34.441Z,16.20
2018-12-19T01:19:03.761Z,20.30
2018-12-19T01:21:32.660Z,17.60
2018-12-19T01:24:01.280Z,19.03
2018-12-19T01:26:30.441Z,19.07
2018-12-19T01:28:58.936Z,20.13
2018-12-19T01:31:28.189Z,19.90
2018-12-19T01:33:56.990Z,16.80
2018-12-19T01:36:25.919Z,19.93
2018-12-19T01:38:55.151Z,19.30
2018-12-19T01:41:24.458Z,17.60
2018-12-19T01:43:53.281Z,18.43
2018-12-19T01:46:21.918Z,20.30
2018-12-19T01:48:50.904Z,17.70
2018-12-19T01:51:20.566Z,16.33
2018-12-19T01:53:49.706Z,17.43
2018-12-19T01:56:18.362Z,19.83
2018-12-19T01:58:47.033Z,18.33
2018-12-19T02:01:15.682Z,18.97
2018-12-19T02:03:44.752Z,18.30
2018-12-19T02:06:13.381Z,20.20
2018-12-19T02:08:42.620Z,17.77
2018-12-19T02:11:12.473Z,18.20
2018-12-19T02:13:58.232Z,19.43
2018-12-19T02:16:27.121Z,17.33
2018-12-19T02:18:56.149Z,19.73
2018-12-19T02:21:25.058Z,16.93
2018-12-19T02:23:54.165Z,21.90
2018-12-19T02:26:23.173Z,19.87
2018-12-19T02:28:51.851Z,17.63
2018-12-19T02:31:20.397Z,18.33
2018-12-19T02:33:49.425Z,17.83
2018-12-19T02:36:18.199Z,18.57
2018-12-19T02:38:47.298Z,19.60
2018-12-19T02:41:15.892Z,17.80
2018-12-19T02:43:44.727Z,17.60
2018-12-19T02:46:13.736Z,18.27
2018-12-19T02:48:42.715Z,20.00
2018-12-19T02:51:12.541Z,17.43
2018-12-19T02:53:41.046Z,19.43
2018-12-19T02:56:10.067Z,18.20
2018-12-19T02:58:39.003Z,18.50
2018-12-19T03:01:07.574Z,17.77
2018-12-19T03:03:36.728Z,15.47
2018-12-19T03:06:05.535Z,17.75
2018-12-19T03:08:34.309Z,18.63
2018-12-19T03:11:04.029Z,17.97
2018-12-19T03:13:33.111Z,15.50
2018-12-19T03:16:01.762Z,17.13
2018-12-19T03:18:30.882Z,16.63
2018-12-19T03:20:59.631Z,13.27
2018-12-19T03:23:28.256Z,14.13
2018-12-19T03:25:57.496Z,13.80
2018-12-19T03:28:26.488Z,14.00
2018-12-19T03:30:56.605Z,15.10
2018-12-19T03:33:25.382Z,14.37
2018-12-19T03:35:54.890Z,12.10
2018-12-19T03:38:24.383Z,13.40
2018-12-19T03:40:54.065Z,13.40
2018-12-19T03:43:23.506Z,14.03
2018-12-19T03:48:50.661Z,14.03
2018-12-19T03:51:20.432Z,19.57
2018-12-19T03:53:49.044Z,15.43
2018-12-19T03:56:17.862Z,15.58
2018-12-19T03:58:47.076Z,15.97
2018-12-19T04:01:15.860Z,15.30
2018-12-19T04:03:44.622Z,16.03
2018-12-19T04:06:55.458Z,15.60
2018-12-19T04:09:25.419Z,15.83
2018-12-19T04:12:00.087Z,19.13
2018-12-19T04:14:29.551Z,16.48
2018-12-19T04:16:58.149Z,16.10
2018-12-19T04:19:28.311Z,14.30
2018-12-19T04:21:58.797Z,15.93
2018-12-19T04:24:27.719Z,18.37
2018-12-19T04:26:56.505Z,17.53
2018-12-19T04:29:26.592Z,15.03
2018-12-19T04:31:56.374Z,16.57
2018-12-19T04:34:25.686Z,17.47
2018-12-19T04:36:55.396Z,18.20
2018-12-19T04:39:26.152Z,19.27
2018-12-19T04:41:55.616Z,16.77
2018-12-19T04:44:25.682Z,19.30
2018-12-19T04:46:54.857Z,18.17
2018-12-19T04:49:24.956Z,16.60
2018-12-19T04:51:56.356Z,16.87
2018-12-19T04:54:25.672Z,18.63
2018-12-19T04:56:55.113Z,34.00
2018-12-19T04:59:23.831Z,17.43
2018-12-19T05:01:52.556Z,17.17
2018-12-19T05:04:21.761Z,19.77
2018-12-19T05:06:50.240Z,18.47
2018-12-19T05:09:19.018Z,15.93
2018-12-19T05:11:47.840Z,16.80
2018-12-19T05:14:17.176Z,19.50
2018-12-19T05:16:46.830Z,18.50
2018-12-19T05:19:15.434Z,19.10
2018-12-19T05:21:44.186Z,17.20
2018-12-19T05:24:13.119Z,20.07
2018-12-19T05:26:42.579Z,18.80
2018-12-19T05:29:11.637Z,21.05
2018-12-19T05:31:41.464Z,19.00
2018-12-19T05:34:10.503Z,21.50
2018-12-19T05:36:39.567Z,19.70
2018-12-19T05:39:11.115Z,19.80
2018-12-19T05:41:40.154Z,21.10
2018-12-19T05:44:10.998Z,19.60
2018-12-19T05:46:40.860Z,20.67
2018-12-19T05:49:09.889Z,20.33
2018-12-19T05:51:40.362Z,19.73
2018-12-19T05:54:08.998Z,20.30
2018-12-19T05:56:39.042Z,21.60
2018-12-19T05:59:09.224Z,25.77
2018-12-19T06:01:37.843Z,18.73
2018-12-19T06:04:06.515Z,20.72
2018-12-19T06:06:35.170Z,19.40
2018-12-19T06:09:05.070Z,23.98
2018-12-19T06:11:34.562Z,19.37
2018-12-19T06:14:05.715Z,17.10
2018-12-19T06:16:34.466Z,57.63
2018-12-19T06:19:02.889Z,24.93
2018-12-19T06:24:25.385Z,25.63
2018-12-19T06:26:54.488Z,24.80
2018-12-19T06:29:23.151Z,20.83
2018-12-19T06:31:52.569Z,23.23
2018-12-19T06:34:21.313Z,22.13
2018-12-19T06:36:54.162Z,22.10
2018-12-19T06:39:25.859Z,21.40
2018-12-19T06:41:56.257Z,21.17
2018-12-19T06:44:25.273Z,34.83
2018-12-19T06:57:04.938Z,22.67
2018-12-19T06:59:34.291Z,25.43
2018-12-19T07:02:03.577Z,21.30
2018-12-19T07:04:32.281Z,26.87
2018-12-19T07:07:03.382Z,21.00
2018-12-19T07:09:32.449Z,27.00
2018-12-19T07:12:01.520Z,25.50
2018-12-19T07:14:31.030Z,23.60
2018-12-19T07:17:00.212Z,21.27
2018-12-19T07:19:29.418Z,23.87
2018-12-19T07:21:58.628Z,24.97
2018-12-19T07:24:27.734Z,23.30
2018-12-19T07:26:56.708Z,27.97
2018-12-19T07:29:25.741Z,24.00
2018-12-19T07:31:55.017Z,26.47
2018-12-19T07:34:24.117Z,22.90
2018-12-19T07:36:55.056Z,28.03
2018-12-19T07:39:24.418Z,22.70
2018-12-19T07:41:55.200Z,23.07
2018-12-19T07:44:24.639Z,22.77
2018-12-19T07:46:54.117Z,19.60
2018-12-19T07:49:23.148Z,19.80
2018-12-19T07:51:52.334Z,21.95
2018-12-19T07:54:21.336Z,21.13
2018-12-19T07:56:50.269Z,22.23
2018-12-19T07:59:19.492Z,21.00
2018-12-19T08:01:48.815Z,20.80
2018-12-19T08:04:18.409Z,18.93
2018-12-19T08:06:47.686Z,19.27
2018-12-19T08:09:16.778Z,18.63
2018-12-19T08:11:45.707Z,19.83
2018-12-19T08:14:15.063Z,20.47
2018-12-19T08:16:44.796Z,21.47
2018-12-19T08:19:13.779Z,21.70
2018-12-19T08:21:42.917Z,20.60
2018-12-19T08:24:11.718Z,21.70
2018-12-19T08:26:42.666Z,26.13
2018-12-19T08:29:11.807Z,22.83
2018-12-19T08:31:41.494Z,21.33
2018-12-19T08:34:11.434Z,20.65
2018-12-19T08:36:44.615Z,22.47
2018-12-19T08:39:14.014Z,25.77
2018-12-19T08:41:43.384Z,21.80
2018-12-19T08:44:12.486Z,26.30
2018-12-19T08:46:42.282Z,26.03
2018-12-19T08:49:13.064Z,24.37
2018-12-19T08:51:42.923Z,24.30
2018-12-19T08:57:12.029Z,28.20
2018-12-19T08:59:40.709Z,27.80
2018-12-19T09:02:09.271Z,34.10
2018-12-19T09:04:38.663Z,26.20
2018-12-19T09:07:07.621Z,33.23
2018-12-19T09:09:36.659Z,29.10
2018-12-19T09:12:05.538Z,26.13
2018-12-19T09:14:34.562Z,30.43
2018-12-19T09:17:03.346Z,32.03
2018-12-19T09:19:31.955Z,32.83
2018-12-19T09:22:02.382Z,33.83
2018-12-19T09:24:31.476Z,23.02
2018-12-19T09:27:00.239Z,31.40
2018-12-19T09:29:28.974Z,25.20
2018-12-19T09:31:57.940Z,25.17
2018-12-19T09:34:26.842Z,26.40
2018-12-19T09:36:55.754Z,26.63
2018-12-19T09:39:25.311Z,26.20
2018-12-19T09:41:54.481Z,29.60
2018-12-19T09:44:23.982Z,30.07
2018-12-19T09:46:53.883Z,29.33
2018-12-19T09:49:23.241Z,32.80
2018-12-19T09:51:57.701Z,31.50
2018-12-19T09:54:27.125Z,27.77
2018-12-19T09:56:56.360Z,28.17
2018-12-19T09:59:25.468Z,39.47
2018-12-19T10:01:55.240Z,26.33
2018-12-19T10:04:24.318Z,37.30
2018-12-19T10:06:53.744Z,32.05
2018-12-19T10:09:22.768Z,33.27
2018-12-19T10:11:51.675Z,36.23
2018-12-19T10:14:20.977Z,31.57
2018-12-19T10:16:50.103Z,24.92
2018-12-19T10:19:20.286Z,27.57
2018-12-19T10:21:53.338Z,26.80
2018-12-19T10:24:26.969Z,25.77
2018-12-19T10:26:56.318Z,25.93
2018-12-19T10:29:25.013Z,30.03
2018-12-19T10:31:53.707Z,29.97
2018-12-19T10:34:23.190Z,25.73
2018-12-19T10:36:52.440Z,29.80
2018-12-19T10:39:21.679Z,31.50
2018-12-19T10:41:50.819Z,33.50
2018-12-19T10:44:20.070Z,36.37
2018-12-19T10:46:49.087Z,33.43
2018-12-19T10:49:21.904Z,29.50
2018-12-19T10:51:51.047Z,30.80
2018-12-19T10:54:20.740Z,30.00
2018-12-19T10:56:49.478Z,30.80
2018-12-19T10:59:19.928Z,33.27
2018-12-19T11:01:49.260Z,31.50
2018-12-19T11:04:18.575Z,37.00
2018-12-19T11:06:47.471Z,34.93
2018-12-19T11:09:16.605Z,34.23
2018-12-19T11:11:48.587Z,46.92
2018-12-19T11:14:18.636Z,33.77
2018-12-19T11:16:47.760Z,41.20
2018-12-19T11:19:20.022Z,33.47
2018-12-19T11:21:49.875Z,35.90
2018-12-19T11:24:19.006Z,29.17
2018-12-19T11:26:48.224Z,30.57
2018-12-19T11:29:17.365Z,30.83
2018-12-19T11:31:46.346Z,26.97
2018-12-19T11:34:15.833Z,28.20
2018-12-19T11:36:44.911Z,32.80
2018-12-19T11:39:14.079Z,27.90
2018-12-19T11:41:43.128Z,33.00
2018-12-19T11:44:12.680Z,28.90
2018-12-19T11:46:42.197Z,32.30
2018-12-19T11:49:12.899Z,34.03
2018-12-19T11:51:41.511Z,29.23
2018-12-19T11:54:11.157Z,37.57
2018-12-19T11:56:40.261Z,34.97
2018-12-19T11:59:09.287Z,31.67
2018-12-19T12:01:41.588Z,39.70
2018-12-19T12:04:10.045Z,42.87
2018-12-19T12:06:38.745Z,53.05
2018-12-19T12:09:08.073Z,44.43
2018-12-19T12:11:37.206Z,40.85
2018-12-19T12:14:07.216Z,39.13
2018-12-19T12:16:37.138Z,39.67
2018-12-19T12:19:06.289Z,42.67
2018-12-19T12:24:47.938Z,44.87
2018-12-19T12:27:17.514Z,40.73
2018-12-19T12:29:46.572Z,37.93
2018-12-19T12:32:15.410Z,41.03
2018-12-19T12:34:44.332Z,29.43
2018-12-19T12:37:13.218Z,32.07
2018-12-19T12:39:42.088Z,45.50
2018-12-19T12:42:10.871Z,36.20
2018-12-19T12:44:41.114Z,37.53
2018-12-19T12:47:10.672Z,44.87
2018-12-19T12:49:44.184Z,42.33
2018-12-19T12:52:13.406Z,48.10
2018-12-19T12:54:42.280Z,40.63
2018-12-19T12:57:12.741Z,40.70
2018-12-19T12:59:41.745Z,37.73
2018-12-19T13:02:10.613Z,41.80
2018-12-19T13:04:39.471Z,40.37
2018-12-19T13:07:08.310Z,45.43
2018-12-19T13:09:37.463Z,45.73
2018-12-19T13:12:07.019Z,44.60
2018-12-19T13:14:35.990Z,52.03
2018-12-19T13:17:04.826Z,50.40
2018-12-19T13:19:33.916Z,57.67
2018-12-19T13:22:02.568Z,46.40
2018-12-19T13:24:32.007Z,47.23
2018-12-19T13:27:01.122Z,61.47
2018-12-19T13:29:29.904Z,49.83
2018-12-19T13:32:05.080Z,44.10
2018-12-19T13:34:33.851Z,45.03
2018-12-19T13:37:02.817Z,47.43
2018-12-19T13:39:34.269Z,50.73
2018-12-19T13:42:05.755Z,37.83
2018-12-19T13:44:34.275Z,47.53
2018-12-19T13:47:03.649Z,44.00
2018-12-19T13:49:32.834Z,40.07
2018-12-19T13:52:01.942Z,43.37
2018-12-19T13:54:30.567Z,46.33
2018-12-19T13:56:59.217Z,54.77
2018-12-19T13:59:28.715Z,55.23
2018-12-19T14:01:58.202Z,55.37
2018-12-19T14:04:28.623Z,57.70
2018-12-19T14:06:57.976Z,53.30
2018-12-19T14:09:29.262Z,54.40
2018-12-19T14:11:57.946Z,48.73
2018-12-19T14:14:26.923Z,52.23
2018-12-19T14:16:56.070Z,40.27
2018-12-19T14:19:25.172Z,45.03
2018-12-19T14:21:54.524Z,48.03
2018-12-19T14:24:23.620Z,40.13
2018-12-19T14:26:52.841Z,44.53
2018-12-19T14:29:21.760Z,49.83
2018-12-19T14:31:50.547Z,48.23
2018-12-19T14:34:19.326Z,48.33
2018-12-19T14:36:48.110Z,54.48
2018-12-19T14:39:18.700Z,55.77
2018-12-19T14:41:53.721Z,56.53
2018-12-19T14:44:23.058Z,49.87
2018-12-19T14:46:52.402Z,51.37
2018-12-19T14:49:20.869Z,51.17
2018-12-19T14:51:49.658Z,42.70
2018-12-19T14:54:18.863Z,41.70
2018-12-19T14:56:47.717Z,39.60
2018-12-19T14:59:17.963Z,51.60
2018-12-19T15:01:46.891Z,45.30
2018-12-19T15:04:15.854Z,45.20
2018-12-19T15:13:22.301Z,40.70
2018-12-19T15:15:56.286Z,77.97
2018-12-19T15:18:25.725Z,70.47
2018-12-19T15:20:57.236Z,90.93
2018-12-19T15:23:26.224Z,83.77
2018-12-19T15:25:55.412Z,56.63
2018-12-19T15:28:25.206Z,50.40
2018-12-19T15:30:54.273Z,41.73
2018-12-19T15:33:22.865Z,40.87
2018-12-19T15:35:51.515Z,43.93
2018-12-19T15:38:20.618Z,31.30
2018-12-19T15:40:49.079Z,35.80
2018-12-19T15:43:17.882Z,31.07
2018-12-19T15:45:46.492Z,33.27
2018-12-19T15:48:15.326Z,38.50
2018-12-19T15:50:46.610Z,44.80
2018-12-19T15:53:15.129Z,49.03
2018-12-19T15:55:43.865Z,35.20
2018-12-19T15:58:12.589Z,57.43
2018-12-19T16:00:41.140Z,48.40
2018-12-19T16:03:10.127Z,46.47
2018-12-19T16:05:39.124Z,43.83
2018-12-19T16:08:07.768Z,45.10
2018-12-19T16:10:36.693Z,44.37
2018-12-19T16:13:05.551Z,39.93
2018-12-19T16:15:34.580Z,50.15
2018-12-19T16:18:03.606Z,44.70
2018-12-19T16:20:32.662Z,43.27
2018-12-19T16:23:01.433Z,44.33
2018-12-19T16:25:30.186Z,43.35
2018-12-19T16:27:58.893Z,48.90
2018-12-19T16:30:27.972Z,43.20
2018-12-19T17:01:50.867Z,48.92
2018-12-19T17:33:25.926Z,22.83
2018-12-19T17:36:02.864Z,23.53
2018-12-19T17:38:54.644Z,23.30
2018-12-19T17:41:29.651Z,25.10
2018-12-19T18:04:37.647Z,22.60
2018-12-19T18:07:07.150Z,27.00
2018-12-19T18:09:37.198Z,28.40
2018-12-19T18:12:10.603Z,20.03
2018-12-19T18:14:40.678Z,21.00
2018-12-19T18:17:13.634Z,24.07
2018-12-19T18:19:50.631Z,31.27
2018-12-19T18:39:36.224Z,33.97
2018-12-19T18:42:06.097Z,27.50
2018-12-19T18:44:36.544Z,27.07
2018-12-19T18:47:09.563Z,27.40
2018-12-19T18:49:43.464Z,26.07
2018-12-19T18:52:16.352Z,25.47
2018-12-19T18:54:45.801Z,23.90
2018-12-19T18:57:14.729Z,25.85
2018-12-19T18:59:44.066Z,18.00
2018-12-19T19:02:13.036Z,20.33
2018-12-19T19:04:41.813Z,20.60
2018-12-19T19:07:11.398Z,24.10
2018-12-19T19:09:40.703Z,21.27
2018-12-19T19:12:10.059Z,25.43
2018-12-19T19:14:39.286Z,24.20
2018-12-19T19:17:09.245Z,26.07
2018-12-19T19:19:38.462Z,25.17
2018-12-19T19:22:11.087Z,27.47
2018-12-19T19:24:40.440Z,19.93
2018-12-19T19:27:09.753Z,18.90
2018-12-19T19:29:38.908Z,21.53
2018-12-19T19:32:08.437Z,17.63
2018-12-19T19:34:37.656Z,23.57
2018-12-19T19:37:06.507Z,21.82
2018-12-19T19:39:35.504Z,27.40
2018-12-19T19:42:08.383Z,30.93
2018-12-19T19:44:38.882Z,24.63
2018-12-19T19:47:11.433Z,26.93
2018-12-19T19:49:43.279Z,24.60
2018-12-19T19:52:12.561Z,24.50
2018-12-19T19:54:43.132Z,22.90
2018-12-19T19:57:12.527Z,26.53
2018-12-19T19:59:43.401Z,25.53
2018-12-19T20:02:15.695Z,21.80
2018-12-19T20:04:44.777Z,23.73
2018-12-19T20:07:13.913Z,24.20
2018-12-19T20:09:43.504Z,22.63
2018-12-19T20:12:12.998Z,25.30
2018-12-19T20:14:42.533Z,25.67
2018-12-19T20:17:23.675Z,25.52
2018-12-19T20:19:53.646Z,22.20
2018-12-19T20:22:23.101Z,26.13
2018-12-19T20:24:54.089Z,20.40
2018-12-19T20:27:23.316Z,18.67
2018-12-19T20:29:55.151Z,22.47
2018-12-19T20:32:24.591Z,21.50
2018-12-19T20:34:53.990Z,24.20
2018-12-19T20:37:26.218Z,26.33
2018-12-19T20:39:55.572Z,22.70
2018-12-19T20:42:24.810Z,23.73
2018-12-19T20:44:55.455Z,20.70
2018-12-19T20:47:27.630Z,24.03
2018-12-19T20:49:57.038Z,29.97
2018-12-19T20:52:26.161Z,22.00
2018-12-19T20:54:55.382Z,20.40
2018-12-19T20:57:24.598Z,23.80
2018-12-19T20:59:53.524Z,22.30
2018-12-19T21:02:23.004Z,21.70
2018-12-19T21:04:52.057Z,23.23
2018-12-19T21:07:20.931Z,20.67
2018-12-19T21:09:49.719Z,23.40
2018-12-19T21:12:19.332Z,25.53
2018-12-19T21:14:48.891Z,25.10
2018-12-19T21:17:23.383Z,20.17
2018-12-19T21:19:52.945Z,23.27
2018-12-19T21:22:22.500Z,23.87
2018-12-19T21:24:51.576Z,22.90
2018-12-19T21:27:20.464Z,19.57
2018-12-19T21:29:49.300Z,18.77
2018-12-19T21:32:18.123Z,25.77
2018-12-19T21:34:47.199Z,25.27
2018-12-19T21:37:16.030Z,22.10
2018-12-19T21:39:44.754Z,26.50
2018-12-19T21:42:13.703Z,24.20
2018-12-19T21:44:42.937Z,23.30
2018-12-19T21:47:11.461Z,27.60
2018-12-19T21:49:40.380Z,21.37
2018-12-19T21:52:09.449Z,18.65
2018-12-19T21:54:37.993Z,18.10
2018-12-19T21:57:07.075Z,22.33
2018-12-19T21:59:35.969Z,18.60
2018-12-19T22:02:04.658Z,19.20
2018-12-19T22:04:33.443Z,18.27
2018-12-19T22:07:02.307Z,20.27
2018-12-19T22:09:31.293Z,18.37
2018-12-19T22:12:00.356Z,18.13
2018-12-19T22:14:29.382Z,18.27
2018-12-19T22:17:03.519Z,29.33
2018-12-19T22:19:32.563Z,18.87
2018-12-19T22:22:08.701Z,18.70
2018-12-19T22:24:37.768Z,17.57
2018-12-19T22:27:06.894Z,19.63
2018-12-19T22:29:35.772Z,14.60
2018-12-19T22:32:05.430Z,16.23
2018-12-19T22:34:34.228Z,19.10
2018-12-19T22:37:03.194Z,16.27
2018-12-19T22:39:32.150Z,20.17
2018-12-19T22:42:01.402Z,17.63
2018-12-19T22:44:30.517Z,19.50
2018-12-19T22:46:59.552Z,16.93
2018-12-19T22:49:28.303Z,20.80
2018-12-19T22:51:57.386Z,15.97
2018-12-19T22:54:27.620Z,15.17
2018-12-19T22:56:56.491Z,20.70
2018-12-19T22:59:25.495Z,14.27
2018-12-19T23:01:59.627Z,16.63
2018-12-19T23:04:28.905Z,13.30
2018-12-19T23:06:57.958Z,11.43
2018-12-19T23:09:26.929Z,14.77
2018-12-19T23:11:55.756Z,13.30
2018-12-19T23:14:24.755Z,15.57
2018-12-19T23:16:53.893Z,15.40
2018-12-19T23:19:23.051Z,13.13
2018-12-19T23:21:52.144Z,11.63
2018-12-19T23:24:20.866Z,12.83
2018-12-19T23:26:49.820Z,12.20
2018-12-19T23:29:18.933Z,14.50
2018-12-19T23:31:47.625Z,15.07
2018-12-19T23:34:16.479Z,11.93
2018-12-19T23:36:45.790Z,12.50
2018-12-19T23:39:14.739Z,13.73
2018-12-19T23:41:43.467Z,14.20
2018-12-19T23:44:14.468Z,12.23
2018-12-19T23:46:43.507Z,13.00
2018-12-19T23:49:12.380Z,14.67
2018-12-19T23:51:40.969Z,12.60
2018-12-19T23:54:09.873Z,12.97
2018-12-19T23:56:38.498Z,12.27
2018-12-19T23:59:07.372Z,11.93
